sensor_id;sensor_type;location;lat;lon;timestamp;pressure;altitude;pressure_sealevel;temperature;humidity
63090;BME280;49174;43.198;27.824;2023-07-13T00:01:17;101622.28;;;22.65;100.00
63090;BME280;49174;43.198;27.824;2023-07-13T00:03:43;101624.97;;;22.60;100.00
63090;BME280;49174;43.198;27.824;2023-07-13T00:06:09;101616.97;;;22.59;100.00
63090;BME280;49174;43.198;27.824;2023-07-13T00:08:34;101617.75;;;22.54;100.00
63090;BME280;49174;43.198;27.824;2023-07-13T00:11:01;101623.25;;;22.54;100.00
63090;BME280;49174;43.198;27.824;2023-07-13T00:13:29;101622.69;;;22.52;100.00
63090;BME280;49174;43.198;27.824;2023-07-13T00:15:57;101611.03;;;22.45;100.00
63090;BME280;49174;43.198;27.824;2023-07-13T00:18:23;101602.78;;;22.45;100.00
63090;BME280;49174;43.198;27.824;2023-07-13T00:20:48;101605.53;;;22.45;100.00
63090;BME280;49174;43.198;27.824;2023-07-13T00:23:14;101610.41;;;22.38;100.00
63090;BME280;49174;43.198;27.824;2023-07-13T00:25:39;101605.34;;;22.29;100.00
63090;BME280;49174;43.198;27.824;2023-07-13T00:28:05;101605.06;;;22.31;100.00
63090;BME280;49174;43.198;27.824;2023-07-13T00:30:31;101600.66;;;22.30;100.00
63090;BME280;49174;43.198;27.824;2023-07-13T00:32:56;101593.75;;;22.27;100.00
63090;BME280;49174;43.198;27.824;2023-07-13T00:35:25;101587.16;;;22.28;100.00
63090;BME280;49174;43.198;27.824;2023-07-13T00:37:51;101582.44;;;22.24;100.00
63090;BME280;49174;43.198;27.824;2023-07-13T00:40:16;101578.78;;;22.18;100.00
63090;BME280;49174;43.198;27.824;2023-07-13T00:42:42;101580.44;;;22.19;100.00
63090;BME280;49174;43.198;27.824;2023-07-13T00:47:40;101574.59;;;22.16;100.00
63090;BME280;49174;43.198;27.824;2023-07-13T00:50:08;101565.78;;;22.14;100.00
63090;BME280;49174;43.198;27.824;2023-07-13T00:52:40;101566.59;;;22.14;100.00
63090;BME280;49174;43.198;27.824;2023-07-13T00:55:07;101562.44;;;22.12;100.00
63090;BME280;49174;43.198;27.824;2023-07-13T00:57:34;101556.38;;;22.09;100.00
63090;BME280;49174;43.198;27.824;2023-07-13T01:00:03;101563.22;;;22.07;100.00
63090;BME280;49174;43.198;27.824;2023-07-13T01:02:32;101565.69;;;22.08;100.00
63090;BME280;49174;43.198;27.824;2023-07-13T01:04:58;101558.56;;;22.07;100.00
63090;BME280;49174;43.198;27.824;2023-07-13T01:07:24;101561.50;;;22.01;100.00
63090;BME280;49174;43.198;27.824;2023-07-13T01:09:50;101555.91;;;21.96;100.00
63090;BME280;49174;43.198;27.824;2023-07-13T01:12:15;101546.50;;;21.92;100.00
63090;BME280;49174;43.198;27.824;2023-07-13T01:14:40;101546.19;;;21.88;100.00
63090;BME280;49174;43.198;27.824;2023-07-13T01:17:09;101538.19;;;21.86;100.00
63090;BME280;49174;43.198;27.824;2023-07-13T01:19:37;101542.03;;;21.85;100.00
63090;BME280;49174;43.198;27.824;2023-07-13T01:22:13;101538.13;;;21.81;100.00
63090;BME280;49174;43.198;27.824;2023-07-13T01:24:41;101538.63;;;21.78;100.00
63090;BME280;49174;43.198;27.824;2023-07-13T01:27:08;101537.78;;;21.78;100.00
63090;BME280;49174;43.198;27.824;2023-07-13T01:29:36;101535.56;;;21.75;100.00
63090;BME280;49174;43.198;27.824;2023-07-13T01:32:09;101534.72;;;21.74;100.00
63090;BME280;49174;43.198;27.824;2023-07-13T01:34:35;101540.72;;;21.71;100.00
63090;BME280;49174;43.198;27.824;2023-07-13T01:37:03;101530.25;;;21.68;100.00
63090;BME280;49174;43.198;27.824;2023-07-13T01:39:29;101528.56;;;21.67;100.00
63090;BME280;49174;43.198;27.824;2023-07-13T01:41:54;101525.50;;;21.63;100.00
63090;BME280;49174;43.198;27.824;2023-07-13T01:44:21;101530.47;;;21.67;100.00
63090;BME280;49174;43.198;27.824;2023-07-13T01:46:47;101519.78;;;21.65;100.00
63090;BME280;49174;43.198;27.824;2023-07-13T01:49:12;101523.56;;;21.64;100.00
63090;BME280;49174;43.198;27.824;2023-07-13T01:51:38;101522.75;;;21.63;100.00
63090;BME280;49174;43.198;27.824;2023-07-13T01:54:03;101524.09;;;21.61;100.00
63090;BME280;49174;43.198;27.824;2023-07-13T01:56:29;101516.13;;;21.59;100.00
63090;BME280;49174;43.198;27.824;2023-07-13T01:58:54;101520.75;;;21.59;100.00
63090;BME280;49174;43.198;27.824;2023-07-13T02:01:19;101521.84;;;21.58;100.00
63090;BME280;49174;43.198;27.824;2023-07-13T02:03:46;101519.09;;;21.58;100.00
63090;BME280;49174;43.198;27.824;2023-07-13T02:06:12;101516.63;;;21.56;100.00
63090;BME280;49174;43.198;27.824;2023-07-13T02:08:37;101518.50;;;21.56;100.00
63090;BME280;49174;43.198;27.824;2023-07-13T02:11:03;101527.03;;;21.54;100.00
63090;BME280;49174;43.198;27.824;2023-07-13T02:13:29;101524.28;;;21.54;100.00
63090;BME280;49174;43.198;27.824;2023-07-13T02:15:54;101517.94;;;21.54;100.00
63090;BME280;49174;43.198;27.824;2023-07-13T02:18:20;101513.78;;;21.51;100.00
63090;BME280;49174;43.198;27.824;2023-07-13T02:20:45;101526.44;;;21.52;100.00
63090;BME280;49174;43.198;27.824;2023-07-13T02:23:11;101520.63;;;21.49;100.00
63090;BME280;49174;43.198;27.824;2023-07-13T02:25:37;101516.19;;;21.48;100.00
63090;BME280;49174;43.198;27.824;2023-07-13T02:28:03;101518.94;;;21.48;100.00
63090;BME280;49174;43.198;27.824;2023-07-13T02:30:29;101515.13;;;21.49;100.00
63090;BME280;49174;43.198;27.824;2023-07-13T02:32:56;101513.44;;;21.48;100.00
63090;BME280;49174;43.198;27.824;2023-07-13T02:35:21;101512.88;;;21.46;100.00
63090;BME280;49174;43.198;27.824;2023-07-13T02:37:47;101511.19;;;21.45;100.00
63090;BME280;49174;43.198;27.824;2023-07-13T02:40:13;101511.47;;;21.43;100.00
63090;BME280;49174;43.198;27.824;2023-07-13T02:42:39;101516.13;;;21.42;100.00
63090;BME280;49174;43.198;27.824;2023-07-13T02:45:05;101524.59;;;21.41;100.00
63090;BME280;49174;43.198;27.824;2023-07-13T02:47:32;101528.69;;;21.38;100.00
63090;BME280;49174;43.198;27.824;2023-07-13T02:49:57;101528.56;;;21.33;100.00
63090;BME280;49174;43.198;27.824;2023-07-13T02:52:23;101517.06;;;21.36;100.00
63090;BME280;49174;43.198;27.824;2023-07-13T02:54:50;101528.69;;;21.38;100.00
63090;BME280;49174;43.198;27.824;2023-07-13T02:57:15;101524.59;;;21.41;100.00
63090;BME280;49174;43.198;27.824;2023-07-13T02:59:41;101518.28;;;21.40;100.00
63090;BME280;49174;43.198;27.824;2023-07-13T03:02:06;101517.47;;;21.40;100.00
63090;BME280;49174;43.198;27.824;2023-07-13T03:04:32;101514.97;;;21.38;100.00
63090;BME280;49174;43.198;27.824;2023-07-13T03:06:58;101514.44;;;21.41;100.00
63090;BME280;49174;43.198;27.824;2023-07-13T03:09:24;101510.06;;;21.40;100.00
63090;BME280;49174;43.198;27.824;2023-07-13T03:11:53;101507.63;;;21.44;100.00
63090;BME280;49174;43.198;27.824;2023-07-13T03:14:20;101509.28;;;21.45;100.00
63090;BME280;49174;43.198;27.824;2023-07-13T03:16:46;101510.69;;;21.48;100.00
63090;BME280;49174;43.198;27.824;2023-07-13T03:19:12;101510.69;;;21.48;100.00
63090;BME280;49174;43.198;27.824;2023-07-13T03:21:37;101517.88;;;21.49;100.00
63090;BME280;49174;43.198;27.824;2023-07-13T03:24:03;101514.94;;;21.55;100.00
63090;BME280;49174;43.198;27.824;2023-07-13T03:26:28;101509.44;;;21.55;100.00
63090;BME280;49174;43.198;27.824;2023-07-13T03:28:54;101511.97;;;21.57;100.00
63090;BME280;49174;43.198;27.824;2023-07-13T03:31:24;101511.44;;;21.60;100.00
63090;BME280;49174;43.198;27.824;2023-07-13T03:33:50;101511.69;;;21.58;100.00
63090;BME280;49174;43.198;27.824;2023-07-13T03:36:20;101512.50;;;21.59;100.00
63090;BME280;49174;43.198;27.824;2023-07-13T03:38:51;101509.75;;;21.59;100.00
63090;BME280;49174;43.198;27.824;2023-07-13T03:41:16;101512.88;;;21.62;100.00
63090;BME280;49174;43.198;27.824;2023-07-13T03:43:42;101514.00;;;21.67;100.00
63090;BME280;49174;43.198;27.824;2023-07-13T03:46:08;101512.44;;;21.71;100.00
63090;BME280;49174;43.198;27.824;2023-07-13T03:48:34;101517.06;;;21.70;100.00
63090;BME280;49174;43.198;27.824;2023-07-13T03:51:00;101521.19;;;21.68;100.00
63090;BME280;49174;43.198;27.824;2023-07-13T03:53:25;101515.69;;;21.68;100.00
63090;BME280;49174;43.198;27.824;2023-07-13T03:55:51;101522.91;;;21.74;100.00
63090;BME280;49174;43.198;27.824;2023-07-13T03:58:43;101525.78;;;21.84;100.00
63090;BME280;49174;43.198;27.824;2023-07-13T04:01:11;101525.88;;;21.89;100.00
63090;BME280;49174;43.198;27.824;2023-07-13T04:03:37;101527.03;;;21.93;100.00
63090;BME280;49174;43.198;27.824;2023-07-13T04:06:05;101528.19;;;21.97;100.00
63090;BME280;49174;43.198;27.824;2023-07-13T04:08:34;101520.31;;;22.06;100.00
63090;BME280;49174;43.198;27.824;2023-07-13T04:11:00;101516.06;;;22.15;100.00
63090;BME280;49174;43.198;27.824;2023-07-13T04:13:26;101521.63;;;22.20;100.00
63090;BME280;49174;43.198;27.824;2023-07-13T04:15:53;101524.13;;;22.22;100.00
63090;BME280;49174;43.198;27.824;2023-07-13T04:18:19;101526.94;;;22.27;100.00
63090;BME280;49174;43.198;27.824;2023-07-13T04:20:46;101520.41;;;22.33;100.00
63090;BME280;49174;43.198;27.824;2023-07-13T04:23:12;101525.22;;;22.43;100.00
63090;BME280;49174;43.198;27.824;2023-07-13T04:25:37;101523.66;;;22.52;100.00
63090;BME280;49174;43.198;27.824;2023-07-13T04:28:04;101523.22;;;22.60;100.00
63090;BME280;49174;43.198;27.824;2023-07-13T04:30:31;101522.41;;;22.65;100.00
63090;BME280;49174;43.198;27.824;2023-07-13T04:32:57;101522.22;;;22.71;100.00
63090;BME280;49174;43.198;27.824;2023-07-13T04:35:24;101528.31;;;22.73;100.00
63090;BME280;49174;43.198;27.824;2023-07-13T04:37:50;101524.53;;;22.80;100.00
63090;BME280;49174;43.198;27.824;2023-07-13T04:40:19;101538.63;;;22.88;100.00
63090;BME280;49174;43.198;27.824;2023-07-13T04:42:46;101548.94;;;22.98;100.00
63090;BME280;49174;43.198;27.824;2023-07-13T04:45:13;101535.75;;;23.00;100.00
63090;BME280;49174;43.198;27.824;2023-07-13T04:47:39;101531.94;;;23.06;100.00
63090;BME280;49174;43.198;27.824;2023-07-13T04:50:05;101539.19;;;23.12;100.00
63090;BME280;49174;43.198;27.824;2023-07-13T04:52:31;101538.13;;;23.18;100.00
63090;BME280;49174;43.198;27.824;2023-07-13T04:54:58;101541.75;;;23.24;100.00
63090;BME280;49174;43.198;27.824;2023-07-13T04:57:25;101548.91;;;23.25;100.00
63090;BME280;49174;43.198;27.824;2023-07-13T04:59:51;101538.19;;;23.29;100.00
63090;BME280;49174;43.198;27.824;2023-07-13T05:02:17;101548.72;;;23.37;100.00
63090;BME280;49174;43.198;27.824;2023-07-13T05:04:46;101544.38;;;23.41;100.00
63090;BME280;49174;43.198;27.824;2023-07-13T05:07:12;101541.09;;;23.44;100.00
63090;BME280;49174;43.198;27.824;2023-07-13T05:09:37;101543.59;;;23.51;100.00
63090;BME280;49174;43.198;27.824;2023-07-13T05:12:03;101541.47;;;23.58;100.00
63090;BME280;49174;43.198;27.824;2023-07-13T05:14:28;101538.75;;;23.63;100.00
63090;BME280;49174;43.198;27.824;2023-07-13T05:16:54;101548.94;;;23.68;100.00
63090;BME280;49174;43.198;27.824;2023-07-13T05:19:19;101546.06;;;23.79;100.00
63090;BME280;49174;43.198;27.824;2023-07-13T05:21:45;101556.28;;;23.89;100.00
63090;BME280;49174;43.198;27.824;2023-07-13T05:24:10;101550.81;;;23.94;100.00
63090;BME280;49174;43.198;27.824;2023-07-13T05:26:36;101547.81;;;24.01;100.00
63090;BME280;49174;43.198;27.824;2023-07-13T05:29:01;101553.63;;;24.09;100.00
63090;BME280;49174;43.198;27.824;2023-07-13T05:31:27;101549.84;;;24.16;100.00
63090;BME280;49174;43.198;27.824;2023-07-13T05:33:53;101551.75;;;24.20;100.00
63090;BME280;49174;43.198;27.824;2023-07-13T05:36:18;101551.78;;;24.25;100.00
63090;BME280;49174;43.198;27.824;2023-07-13T05:38:44;101559.28;;;24.30;100.00
63090;BME280;49174;43.198;27.824;2023-07-13T05:41:09;101563.13;;;24.34;100.00
63090;BME280;49174;43.198;27.824;2023-07-13T05:43:35;101566.47;;;24.36;100.00
63090;BME280;49174;43.198;27.824;2023-07-13T05:46:00;101558.53;;;24.45;100.00
63090;BME280;49174;43.198;27.824;2023-07-13T05:48:26;101555.78;;;24.50;100.00
63090;BME280;49174;43.198;27.824;2023-07-13T05:50:51;101565.22;;;24.64;100.00
63090;BME280;49174;43.198;27.824;2023-07-13T05:53:17;101561.38;;;24.75;100.00
63090;BME280;49174;43.198;27.824;2023-07-13T05:55:44;101560.59;;;24.85;100.00
63090;BME280;49174;43.198;27.824;2023-07-13T05:58:11;101562.50;;;24.90;100.00
63090;BME280;49174;43.198;27.824;2023-07-13T06:00:36;101560.03;;;24.98;100.00
63090;BME280;49174;43.198;27.824;2023-07-13T06:03:02;101567.28;;;25.15;100.00
63090;BME280;49174;43.198;27.824;2023-07-13T06:05:27;101555.94;;;25.27;100.00
63090;BME280;49174;43.198;27.824;2023-07-13T06:07:54;101552.09;;;25.43;100.00
63090;BME280;49174;43.198;27.824;2023-07-13T06:10:20;101555.09;;;25.57;100.00
63090;BME280;49174;43.198;27.824;2023-07-13T06:12:45;101553.97;;;25.73;100.00
63090;BME280;49174;43.198;27.824;2023-07-13T06:15:11;101556.78;;;25.83;100.00
63090;BME280;49174;43.198;27.824;2023-07-13T06:17:37;101558.66;;;25.93;94.16
63090;BME280;49174;43.198;27.824;2023-07-13T06:20:02;101562.78;;;26.16;92.04
63090;BME280;49174;43.198;27.824;2023-07-13T06:22:28;101565.47;;;26.32;91.09
63090;BME280;49174;43.198;27.824;2023-07-13T06:24:53;101571.47;;;26.49;91.27
63090;BME280;49174;43.198;27.824;2023-07-13T06:27:19;101565.34;;;26.62;87.52
63090;BME280;49174;43.198;27.824;2023-07-13T06:29:44;101556.66;;;26.79;85.70
63090;BME280;49174;43.198;27.824;2023-07-13T06:32:10;101560.72;;;26.97;85.33
63090;BME280;49174;43.198;27.824;2023-07-13T06:34:36;101555.38;;;27.11;83.52
63090;BME280;49174;43.198;27.824;2023-07-13T06:37:01;101551.09;;;27.29;83.90
63090;BME280;49174;43.198;27.824;2023-07-13T06:39:27;101551.47;;;27.46;83.08
63090;BME280;49174;43.198;27.824;2023-07-13T06:41:53;101555.41;;;27.69;83.88
63090;BME280;49174;43.198;27.824;2023-07-13T06:44:18;101556.06;;;27.90;79.67
63090;BME280;49174;43.198;27.824;2023-07-13T06:46:44;101549.81;;;28.03;75.78
63090;BME280;49174;43.198;27.824;2023-07-13T06:49:09;101545.22;;;28.18;77.52
63090;BME280;49174;43.198;27.824;2023-07-13T06:51:35;101552.16;;;28.39;77.45
63090;BME280;49174;43.198;27.824;2023-07-13T06:54:00;101544.09;;;28.62;78.34
63090;BME280;49174;43.198;27.824;2023-07-13T06:56:26;101543.19;;;28.85;77.76
63090;BME280;49174;43.198;27.824;2023-07-13T06:58:51;101540.13;;;29.06;75.59
63090;BME280;49174;43.198;27.824;2023-07-13T07:01:16;101541.53;;;29.22;75.79
63090;BME280;49174;43.198;27.824;2023-07-13T07:03:42;101536.25;;;29.39;74.63
63090;BME280;49174;43.198;27.824;2023-07-13T07:06:15;101534.81;;;29.56;71.96
63090;BME280;49174;43.198;27.824;2023-07-13T07:08:41;101536.75;;;29.74;71.05
63090;BME280;49174;43.198;27.824;2023-07-13T07:11:15;101529.22;;;29.89;71.71
63090;BME280;49174;43.198;27.824;2023-07-13T07:13:41;101530.56;;;30.05;72.04
63090;BME280;49174;43.198;27.824;2023-07-13T07:16:08;101525.22;;;30.22;70.79
63090;BME280;49174;43.198;27.824;2023-07-13T07:18:34;101535.94;;;30.43;68.83
63090;BME280;49174;43.198;27.824;2023-07-13T07:20:59;101537.09;;;30.64;70.35
63090;BME280;49174;43.198;27.824;2023-07-13T07:23:25;101538.94;;;30.83;67.77
63090;BME280;49174;43.198;27.824;2023-07-13T07:25:51;101532.16;;;30.98;64.24
63090;BME280;49174;43.198;27.824;2023-07-13T07:28:18;101530.59;;;31.05;64.24
63090;BME280;49174;43.198;27.824;2023-07-13T07:30:48;101525.78;;;31.20;64.56
63090;BME280;49174;43.198;27.824;2023-07-13T07:33:14;101526.13;;;31.41;63.64
63090;BME280;49174;43.198;27.824;2023-07-13T07:35:42;101521.41;;;31.50;61.44
63090;BME280;49174;43.198;27.824;2023-07-13T07:38:09;101529.28;;;31.56;61.76
63090;BME280;49174;43.198;27.824;2023-07-13T07:40:38;101534.97;;;31.74;61.38
63090;BME280;49174;43.198;27.824;2023-07-13T07:43:06;101521.63;;;31.93;58.25
63090;BME280;49174;43.198;27.824;2023-07-13T07:45:35;101525.94;;;32.08;59.02
63090;BME280;49174;43.198;27.824;2023-07-13T07:48:00;101523.66;;;32.19;61.10
63090;BME280;49174;43.198;27.824;2023-07-13T07:50:27;101521.72;;;32.37;59.29
63090;BME280;49174;43.198;27.824;2023-07-13T07:52:53;101522.94;;;32.53;57.73
63090;BME280;49174;43.198;27.824;2023-07-13T07:55:21;101521.31;;;32.69;57.92
63090;BME280;49174;43.198;27.824;2023-07-13T07:57:47;101521.28;;;32.87;58.55
63090;BME280;49174;43.198;27.824;2023-07-13T08:00:13;101523.78;;;33.06;54.85
63090;BME280;49174;43.198;27.824;2023-07-13T08:02:39;101510.59;;;33.15;54.29
63090;BME280;49174;43.198;27.824;2023-07-13T08:05:09;101518.84;;;32.77;57.55
63090;BME280;49174;43.198;27.824;2023-07-13T08:07:36;101517.84;;;32.46;58.08
63090;BME280;49174;43.198;27.824;2023-07-13T08:10:06;101521.25;;;32.43;58.11
63090;BME280;49174;43.198;27.824;2023-07-13T08:12:39;101520.91;;;32.36;62.65
63090;BME280;49174;43.198;27.824;2023-07-13T08:15:08;101520.66;;;32.07;64.17
63090;BME280;49174;43.198;27.824;2023-07-13T08:17:34;101514.13;;;32.20;67.04
63090;BME280;49174;43.198;27.824;2023-07-13T08:20:00;101515.00;;;32.29;67.04
63090;BME280;49174;43.198;27.824;2023-07-13T08:22:25;101520.78;;;32.59;66.41
63090;BME280;49174;43.198;27.824;2023-07-13T08:24:51;101509.69;;;32.01;64.68
63090;BME280;49174;43.198;27.824;2023-07-13T08:27:24;101508.63;;;31.26;67.71
63090;BME280;49174;43.198;27.824;2023-07-13T08:29:51;101507.31;;;31.01;69.07
63090;BME280;49174;43.198;27.824;2023-07-13T08:32:18;101508.09;;;31.47;68.71
63090;BME280;49174;43.198;27.824;2023-07-13T08:34:44;101511.75;;;31.56;66.36
63090;BME280;49174;43.198;27.824;2023-07-13T08:37:10;101516.00;;;31.85;67.09
63090;BME280;49174;43.198;27.824;2023-07-13T08:39:36;101507.56;;;32.16;66.07
63090;BME280;49174;43.198;27.824;2023-07-13T08:42:06;101509.59;;;32.41;62.23
63090;BME280;49174;43.198;27.824;2023-07-13T08:47:21;101505.50;;;32.47;61.77
63090;BME280;49174;43.198;27.824;2023-07-13T08:49:48;101504.38;;;32.48;60.98
63090;BME280;49174;43.198;27.824;2023-07-13T08:52:34;101508.81;;;32.58;59.85
63090;BME280;49174;43.198;27.824;2023-07-13T08:55:09;101506.84;;;32.59;58.52
63090;BME280;49174;43.198;27.824;2023-07-13T08:57:38;101503.88;;;32.72;57.99
63090;BME280;49174;43.198;27.824;2023-07-13T09:00:07;101505.91;;;32.15;60.47
63090;BME280;49174;43.198;27.824;2023-07-13T09:02:58;101504.91;;;32.02;59.92
63090;BME280;49174;43.198;27.824;2023-07-13T09:05:33;101498.41;;;32.24;57.53
63090;BME280;49174;43.198;27.824;2023-07-13T09:10:44;101490.22;;;32.54;58.59
63090;BME280;49174;43.198;27.824;2023-07-13T09:15:59;101493.19;;;32.83;56.30
63090;BME280;49174;43.198;27.824;2023-07-13T09:18:32;101505.34;;;32.70;53.97
63090;BME280;49174;43.198;27.824;2023-07-13T09:21:03;101506.31;;;32.48;55.71
63090;BME280;49174;43.198;27.824;2023-07-13T09:23:30;101503.88;;;32.55;54.83
63090;BME280;49174;43.198;27.824;2023-07-13T09:26:18;101502.41;;;32.58;54.89
63090;BME280;49174;43.198;27.824;2023-07-13T09:28:47;101493.66;;;32.42;54.87
63090;BME280;49174;43.198;27.824;2023-07-13T09:33:41;101496.97;;;32.79;55.34
63090;BME280;49174;43.198;27.824;2023-07-13T09:38:45;101493.53;;;33.08;56.69
63090;BME280;49174;43.198;27.824;2023-07-13T09:41:23;101487.75;;;33.13;55.53
63090;BME280;49174;43.198;27.824;2023-07-13T09:44:06;101478.66;;;33.33;55.43
63090;BME280;49174;43.198;27.824;2023-07-13T09:46:34;101477.13;;;33.45;54.00
63090;BME280;49174;43.198;27.824;2023-07-13T09:49:00;101479.75;;;33.50;54.89
63090;BME280;49174;43.198;27.824;2023-07-13T09:51:25;101475.13;;;33.54;53.92
63090;BME280;49174;43.198;27.824;2023-07-13T09:53:51;101474.81;;;33.47;54.88
63090;BME280;49174;43.198;27.824;2023-07-13T09:56:27;101470.03;;;33.56;52.41
63090;BME280;49174;43.198;27.824;2023-07-13T09:58:55;101461.59;;;33.65;54.33
63090;BME280;49174;43.198;27.824;2023-07-13T10:01:38;101466.69;;;33.71;55.31
63090;BME280;49174;43.198;27.824;2023-07-13T10:04:13;101468.00;;;33.65;55.31
63090;BME280;49174;43.198;27.824;2023-07-13T10:06:44;101463.22;;;33.74;55.41
63090;BME280;49174;43.198;27.824;2023-07-13T10:09:16;101455.97;;;33.73;55.41
63090;BME280;49174;43.198;27.824;2023-07-13T10:11:43;101457.81;;;33.69;56.21
63090;BME280;49174;43.198;27.824;2023-07-13T10:14:15;101444.09;;;33.76;54.91
63090;BME280;49174;43.198;27.824;2023-07-13T10:16:43;101441.09;;;33.81;54.93
63090;BME280;49174;43.198;27.824;2023-07-13T10:19:19;101439.78;;;33.79;53.91
63090;BME280;49174;43.198;27.824;2023-07-13T10:22:02;101435.03;;;33.79;54.73
63090;BME280;49174;43.198;27.824;2023-07-13T10:24:32;101432.50;;;33.87;54.32
63090;BME280;49174;43.198;27.824;2023-07-13T10:27:18;101436.06;;;34.05;53.72
63090;BME280;49174;43.198;27.824;2023-07-13T10:32:13;101423.47;;;34.32;52.29
63090;BME280;49174;43.198;27.824;2023-07-13T10:34:44;101435.50;;;34.32;52.53
63090;BME280;49174;43.198;27.824;2023-07-13T10:37:20;101434.84;;;34.35;51.90
63090;BME280;49174;43.198;27.824;2023-07-13T10:39:48;101421.63;;;34.15;53.10
63090;BME280;49174;43.198;27.824;2023-07-13T10:42:26;101425.41;;;34.19;52.78
63090;BME280;49174;43.198;27.824;2023-07-13T10:44:53;101421.03;;;34.09;53.59
63090;BME280;49174;43.198;27.824;2023-07-13T10:47:18;101418.38;;;34.04;52.49
63090;BME280;49174;43.198;27.824;2023-07-13T10:49:44;101413.41;;;33.89;54.43
63090;BME280;49174;43.198;27.824;2023-07-13T10:52:42;101416.59;;;33.78;53.50
63090;BME280;49174;43.198;27.824;2023-07-13T10:55:35;101412.66;;;33.79;54.75
63090;BME280;49174;43.198;27.824;2023-07-13T10:58:32;101410.00;;;34.04;54.32
63090;BME280;49174;43.198;27.824;2023-07-13T11:03:24;101407.13;;;34.21;54.83
63090;BME280;49174;43.198;27.824;2023-07-13T11:06:07;101417.88;;;34.32;53.24
63090;BME280;49174;43.198;27.824;2023-07-13T11:08:37;101411.06;;;34.20;54.16
63090;BME280;49174;43.198;27.824;2023-07-13T11:18:49;101415.69;;;34.37;52.70
63090;BME280;49174;43.198;27.824;2023-07-13T11:21:18;101413.72;;;34.17;53.42
63090;BME280;49174;43.198;27.824;2023-07-13T11:23:51;101416.31;;;34.22;53.76
63090;BME280;49174;43.198;27.824;2023-07-13T11:29:08;101417.19;;;34.35;54.72
63090;BME280;49174;43.198;27.824;2023-07-13T11:31:34;101419.09;;;34.43;52.59
63090;BME280;49174;43.198;27.824;2023-07-13T11:34:00;101420.44;;;34.24;54.51
63090;BME280;49174;43.198;27.824;2023-07-13T11:36:30;101411.59;;;34.35;54.51
63090;BME280;49174;43.198;27.824;2023-07-13T11:39:14;101406.53;;;34.07;54.08
63090;BME280;49174;43.198;27.824;2023-07-13T11:42:02;101406.13;;;34.17;54.57
63090;BME280;49174;43.198;27.824;2023-07-13T11:44:30;101407.97;;;34.34;54.37
63090;BME280;49174;43.198;27.824;2023-07-13T11:47:11;101407.44;;;34.41;54.47
63090;BME280;49174;43.198;27.824;2023-07-13T11:49:49;101408.66;;;34.52;54.29
63090;BME280;49174;43.198;27.824;2023-07-13T11:52:18;101399.28;;;34.48;52.56
63090;BME280;49174;43.198;27.824;2023-07-13T11:54:54;101402.72;;;34.33;54.20
63090;BME280;49174;43.198;27.824;2023-07-13T11:57:29;101402.28;;;34.43;53.43
63090;BME280;49174;43.198;27.824;2023-07-13T12:00:03;101396.28;;;34.53;54.22
63090;BME280;49174;43.198;27.824;2023-07-13T12:02:34;101405.66;;;34.36;54.69
63090;BME280;49174;43.198;27.824;2023-07-13T12:05:03;101405.19;;;34.34;55.09
63090;BME280;49174;43.198;27.824;2023-07-13T12:07:32;101394.66;;;34.52;54.89
63090;BME280;49174;43.198;27.824;2023-07-13T12:10:22;101400.38;;;34.35;54.76
63090;BME280;49174;43.198;27.824;2023-07-13T12:13:05;101400.53;;;34.17;55.48
63090;BME280;49174;43.198;27.824;2023-07-13T12:15:41;101404.91;;;34.27;55.27
63090;BME280;49174;43.198;27.824;2023-07-13T12:18:19;101406.06;;;34.26;54.56
63090;BME280;49174;43.198;27.824;2023-07-13T12:20:47;101413.13;;;34.11;56.29
63090;BME280;49174;43.198;27.824;2023-07-13T12:23:30;101401.50;;;34.21;55.18
63090;BME280;49174;43.198;27.824;2023-07-13T12:25:56;101404.22;;;34.09;55.06
63090;BME280;49174;43.198;27.824;2023-07-13T12:31:04;101391.88;;;34.10;55.54
63090;BME280;49174;43.198;27.824;2023-07-13T12:33:31;101393.13;;;33.92;57.12
63090;BME280;49174;43.198;27.824;2023-07-13T12:36:00;101391.81;;;33.89;56.16
63090;BME280;49174;43.198;27.824;2023-07-13T12:38:27;101386.09;;;33.86;56.67
63090;BME280;49174;43.198;27.824;2023-07-13T12:40:53;101378.84;;;33.85;56.65
63090;BME280;49174;43.198;27.824;2023-07-13T12:43:21;101374.81;;;33.73;58.13
63090;BME280;49174;43.198;27.824;2023-07-13T12:46:02;101373.78;;;33.78;57.36
63090;BME280;49174;43.198;27.824;2023-07-13T12:48:28;101377.13;;;33.71;58.41
63090;BME280;49174;43.198;27.824;2023-07-13T12:50:55;101375.63;;;33.74;57.02
63090;BME280;49174;43.198;27.824;2023-07-13T12:53:23;101373.09;;;33.51;57.94
63090;BME280;49174;43.198;27.824;2023-07-13T12:55:55;101362.84;;;33.64;57.70
63090;BME280;49174;43.198;27.824;2023-07-13T12:58:39;101359.78;;;33.78;57.64
63090;BME280;49174;43.198;27.824;2023-07-13T13:01:09;101349.34;;;33.87;57.09
63090;BME280;49174;43.198;27.824;2023-07-13T13:03:38;101342.69;;;33.79;58.47
63090;BME280;49174;43.198;27.824;2023-07-13T13:08:46;101334.75;;;33.52;57.83
63090;BME280;49174;43.198;27.824;2023-07-13T13:11:18;101341.56;;;33.42;59.09
63090;BME280;49174;43.198;27.824;2023-07-13T13:13:44;101339.63;;;33.34;59.22
63090;BME280;49174;43.198;27.824;2023-07-13T13:16:17;101335.19;;;33.33;58.65
63090;BME280;49174;43.198;27.824;2023-07-13T13:18:44;101337.38;;;33.27;59.84